Terminal Aerodrome Forecast
Issued by NWS

Home | Current Version | Previous Version | Text Only | Print | Product List | Glossary On
Versions: 1 2 3 4 5 6 7 8 9 10 11 12 13 14 15 16 17 18 19 20 21 22 23 24
000
FTUS42 KTBW 261700 RRA
TAFLAL
TAF
KLAL 261747Z 2618/2718 29010KT P6SM VCSH SCT030 OVC040
     FM262100 29008KT P6SM SCT030 BKN040
     FM270100 33008KT P6SM BKN030 OVC100
     FM270900 02006KT P6SM SCT010 BKN025
     FM271400 03010KT P6SM BKN025 OVC040=

USA.gov is the U.S. government's official web portal to all federal, state and local government web resources and services.